Terminal Aerodrome Forecast
Issued by NWS Memphis, TN

Home | Current Version | Previous Version | Text Only | Print | Product List | Glossary On
Versions: 1 2 3 4 5 6 7 8 9 10 11 12 13 14 15 16 17 18 19 20 21 22 23 24 25 26 27 28 29 30 31 32
000
FTUS44 KMEG 191126
TAFMKL
TAF
KMKL 191126Z 1912/2012 18004KT 5SM -SHRA BR OVC009
     FM191300 20006KT P6SM VCSH OVC007
     FM191500 23010KT P6SM VCSH BKN015
     FM191800 23010KT P6SM SCT025 BKN040
     FM192000 24011KT P6SM SCT040 BKN250
     FM200500 18008KT P6SM VCTS SCT020 BKN040CB
      TEMPO 2005/2007 3SM TSRA BKN020CB
     FM200900 25012G22KT P6SM OVC015=

USA.gov is the U.S. government's official web portal to all federal, state and local government web resources and services.